Time;durP1;ratioP1;P1;durP2;ratioP2;P2;SDS_P1;SDS_P2;PMS_P1;PMS_P2;Temp;Humidity;BMP_temperature;BMP_pressure;BME280_temperature;BME280_humidity;BME280_pressure;Samples;Min_cycle;Max_cycle;Signal;HPM_P1;HPM_P2
2023/04/14 00:00:35;;;;;;;12.15;3.80;;;;;;;3.60;100.00;100781.38;4865306;29;20030;-76
2023/04/14 00:03:01;;;;;;;12.27;3.70;;;;;;;3.63;100.00;100788.16;4869334;29;20025;-76
2023/04/14 00:05:30;;;;;;;7.97;3.40;;;;;;;3.60;100.00;100786.66;4875430;29;20112;-76
2023/04/14 00:07:56;;;;;;;10.23;3.42;;;;;;;3.67;100.00;100793.00;4864038;29;20402;-76
2023/04/14 00:10:22;;;;;;;14.60;7.03;;;;;;;3.63;100.00;100783.72;4864030;29;20065;-76
2023/04/14 00:12:48;;;;;;;9.20;4.45;;;;;;;3.70;100.00;100791.84;4870000;29;20088;-76
2023/04/14 00:15:13;;;;;;;8.25;3.17;;;;;;;3.72;100.00;100797.78;4877346;29;20049;-75
2023/04/14 00:17:39;;;;;;;8.35;2.95;;;;;;;3.72;100.00;100793.34;4883634;29;20076;-76
2023/04/14 00:20:05;;;;;;;7.10;3.10;;;;;;;3.68;100.00;100796.44;4883610;29;20037;-76
2023/04/14 00:22:30;;;;;;;6.75;2.92;;;;;;;3.63;100.00;100793.44;4883820;29;20373;-76
2023/04/14 00:24:56;;;;;;;6.13;3.20;;;;;;;3.53;100.00;100793.50;4895631;29;20069;-76
2023/04/14 00:27:21;;;;;;;9.25;3.80;;;;;;;3.54;100.00;100799.59;4895459;29;20037;-76
2023/04/14 00:29:46;;;;;;;9.55;3.38;;;;;;;3.48;100.00;100801.06;4877883;29;20500;-75
2023/04/14 00:32:12;;;;;;;7.25;4.25;;;;;;;3.48;100.00;100799.28;4890838;29;20455;-76
2023/04/14 00:34:37;;;;;;;7.72;3.20;;;;;;;3.39;100.00;100786.97;4888061;29;20480;-76
2023/04/14 00:37:02;;;;;;;9.07;3.72;;;;;;;3.45;100.00;100799.53;4895950;29;20024;-75
2023/04/14 00:39:28;;;;;;;8.48;4.32;;;;;;;3.44;100.00;100799.72;4895729;29;20025;-75
2023/04/14 00:41:53;;;;;;;8.02;3.22;;;;;;;3.44;100.00;100794.44;4892193;29;20045;-75
2023/04/14 00:44:18;;;;;;;11.63;4.25;;;;;;;3.42;100.00;100791.13;4867152;29;20037;-75
2023/04/14 00:46:44;;;;;;;9.18;3.85;;;;;;;3.42;100.00;100796.41;4895542;29;20032;-75
2023/04/14 00:49:10;;;;;;;8.40;3.70;;;;;;;3.44;100.00;100795.25;4866398;29;20097;-76
2023/04/14 00:51:36;;;;;;;11.05;3.58;;;;;;;3.46;100.00;100797.75;4878366;29;20127;-75
2023/04/14 00:54:04;;;;;;;8.48;3.53;;;;;;;3.50;100.00;100796.47;4877519;29;20064;-75
2023/04/14 00:56:30;;;;;;;7.57;3.30;;;;;;;3.53;100.00;100811.97;4885909;29;20029;-75
2023/04/14 00:58:59;;;;;;;9.20;3.67;;;;;;;3.45;100.00;100812.72;4877430;29;20029;-75
2023/04/14 01:01:26;;;;;;;7.50;3.25;;;;;;;3.39;100.00;100809.88;4881556;29;20036;-75
2023/04/14 01:03:52;;;;;;;8.77;3.28;;;;;;;3.37;100.00;100812.66;4877331;29;20043;-75
2023/04/14 01:06:17;;;;;;;28.52;4.63;;;;;;;3.36;100.00;100816.28;4877174;29;20119;-75
2023/04/14 01:08:43;;;;;;;12.75;4.13;;;;;;;3.43;100.00;100819.13;4877259;29;20035;-71
2023/04/14 01:11:16;;;;;;;6.80;2.90;;;;;;;3.37;100.00;100798.66;4875900;29;20037;-71
2023/04/14 01:14:05;;;;;;;11.02;3.58;;;;;;;3.51;100.00;100814.78;4877323;29;20143;-71
2023/04/14 01:16:35;;;;;;;10.90;4.07;;;;;;;3.54;100.00;100816.28;4877110;29;20153;-72
2023/04/14 01:19:41;;;;;;;7.72;2.83;;;;;;;3.53;100.00;100808.50;4894640;29;20157;-71
2023/04/14 01:22:09;;;;;;;13.15;3.20;;;;;;;3.60;100.00;100810.38;4894869;29;20036;-71
2023/04/14 01:24:38;;;;;;;11.18;3.22;;;;;;;3.61;100.00;100809.41;4894867;29;20024;-72
2023/04/14 01:27:29;;;;;;;4.90;2.47;;;;;;;3.61;100.00;100811.22;4894812;29;20028;-72
2023/04/14 01:30:22;;;;;;;6.75;2.88;;;;;;;3.62;100.00;100808.44;4894742;29;20075;-71
2023/04/14 01:32:51;;;;;;;9.50;5.38;;;;;;;3.53;100.00;100803.25;4894738;29;20037;-71
2023/04/14 01:35:26;;;;;;;8.70;2.78;;;;;;;3.57;100.00;100805.44;4894674;29;20064;-71
2023/04/14 01:37:57;;;;;;;7.32;3.25;;;;;;;3.52;100.00;100802.41;4894699;29;20029;-72
2023/04/14 01:40:26;;;;;;;4.85;2.78;;;;;;;3.59;100.00;100808.75;4894555;29;20020;-71
2023/04/14 01:42:58;;;;;;;8.68;3.42;;;;;;;3.56;100.00;100808.19;4894691;29;20037;-72
2023/04/14 01:45:26;;;;;;;13.55;4.40;;;;;;;3.57;100.00;100809.88;4894337;29;20054;-72
2023/04/14 01:47:53;;;;;;;11.43;3.90;;;;;;;3.60;100.00;100820.94;4877715;29;20033;-71
2023/04/14 01:50:21;;;;;;;10.70;3.95;;;;;;;3.55;100.00;100819.75;4894397;29;20033;-72
2023/04/14 01:52:50;;;;;;;10.63;3.10;;;;;;;3.53;100.00;100824.34;4877446;29;20036;-71
2023/04/14 01:55:18;;;;;;;5.40;2.95;;;;;;;3.49;100.00;100829.91;4894531;29;20039;-71
2023/04/14 01:57:47;;;;;;;5.63;3.03;;;;;;;3.49;100.00;100824.63;4877480;29;20047;-72
2023/04/14 02:00:15;;;;;;;5.70;2.63;;;;;;;3.48;100.00;100828.28;4894326;29;20028;-71
2023/04/14 02:02:45;;;;;;;10.93;3.35;;;;;;;3.43;100.00;100825.25;4894313;29;20048;-71
2023/04/14 02:05:12;;;;;;;8.65;3.70;;;;;;;3.44;100.00;100831.34;4878101;29;20028;-71
2023/04/14 02:07:39;;;;;;;8.65;3.80;;;;;;;3.40;100.00;100830.81;4894184;29;20096;-71
2023/04/14 02:10:07;;;;;;;6.97;2.92;;;;;;;3.37;100.00;100833.75;4894318;29;20029;-72
2023/04/14 02:12:36;;;;;;;8.82;2.90;;;;;;;3.29;100.00;100833.66;4876399;29;20047;-71
2023/04/14 02:15:02;;;;;;;11.90;4.43;;;;;;;3.20;100.00;100832.75;4893343;29;20036;-72
2023/04/14 02:17:29;;;;;;;9.07;3.97;;;;;;;3.19;100.00;100830.25;4894261;29;20088;-71
2023/04/14 02:19:57;;;;;;;11.43;5.35;;;;;;;3.11;100.00;100838.09;4894104;29;20037;-71
2023/04/14 02:22:22;;;;;;;9.05;3.67;;;;;;;3.02;100.00;100834.53;4894301;29;20095;-71
2023/04/14 02:24:47;;;;;;;6.88;3.10;;;;;;;2.97;100.00;100832.34;4894182;29;20471;-71
2023/04/14 02:27:24;;;;;;;13.27;5.47;;;;;;;2.90;100.00;100838.34;4877367;29;20032;-71
2023/04/14 02:29:53;;;;;;;9.43;3.35;;;;;;;2.85;100.00;100849.31;4894089;29;20124;-71
2023/04/14 02:32:22;;;;;;;8.63;3.33;;;;;;;2.76;100.00;100837.88;4893956;29;20372;-71
2023/04/14 02:35:15;;;;;;;9.00;4.03;;;;;;;2.77;100.00;100847.41;4894107;29;20032;-71
2023/04/14 02:37:46;;;;;;;6.13;3.08;;;;;;;2.74;100.00;100855.59;4886957;29;20051;-71
2023/04/14 02:40:19;;;;;;;7.90;3.50;;;;;;;2.66;100.00;100858.16;4876174;29;20036;-71
2023/04/14 02:42:49;;;;;;;4.50;2.45;;;;;;;2.63;100.00;100853.19;4876148;29;20056;-71
2023/04/14 02:45:21;;;;;;;8.60;3.45;;;;;;;2.54;100.00;100854.88;4878302;29;20052;-71
2023/04/14 02:47:53;;;;;;;9.35;3.95;;;;;;;2.50;100.00;100861.41;4886175;29;20033;-72
2023/04/14 02:50:20;;;;;;;12.88;4.93;;;;;;;2.48;100.00;100858.06;4875911;29;20025;-71
2023/04/14 02:52:50;;;;;;;9.70;2.80;;;;;;;2.50;100.00;100866.66;4874778;29;20044;-72
2023/04/14 02:55:17;;;;;;;7.78;3.45;;;;;;;2.53;100.00;100862.91;4876038;29;20028;-71
2023/04/14 02:57:43;;;;;;;7.25;3.25;;;;;;;2.57;100.00;100864.28;4876090;29;20139;-72
2023/04/14 03:00:11;;;;;;;7.60;3.50;;;;;;;2.57;100.00;100856.41;4876051;29;20641;-72
2023/04/14 03:02:37;;;;;;;5.60;2.88;;;;;;;2.59;100.00;100864.94;4876095;29;20029;-72
2023/04/14 03:05:04;;;;;;;14.23;5.55;;;;;;;2.59;100.00;100851.78;4892119;29;20399;-72
2023/04/14 03:07:30;;;;;;;6.82;3.22;;;;;;;2.60;100.00;100854.28;4893788;29;20373;-72
2023/04/14 03:09:56;;;;;;;9.18;4.13;;;;;;;2.64;100.00;100865.34;4893725;29;20059;-71
2023/04/14 03:12:24;;;;;;;14.50;5.10;;;;;;;2.70;100.00;100861.31;4893785;29;20032;-71
2023/04/14 03:14:50;;;;;;;9.32;3.08;;;;;;;2.71;100.00;100866.44;4893757;29;20145;-72
2023/04/14 03:17:19;;;;;;;9.38;3.63;;;;;;;2.71;100.00;100865.63;4875728;29;20068;-71
2023/04/14 03:19:47;;;;;;;5.40;3.03;;;;;;;2.73;100.00;100868.94;4893815;29;20056;-71
2023/04/14 03:22:14;;;;;;;8.57;3.60;;;;;;;2.73;100.00;100867.13;4893695;29;20075;-72
2023/04/14 03:24:41;;;;;;;8.32;3.42;;;;;;;2.74;100.00;100860.06;4893442;29;20032;-72
2023/04/14 03:27:13;;;;;;;8.18;4.53;;;;;;;2.76;100.00;100852.84;4894694;29;20036;-71
2023/04/14 03:29:44;;;;;;;11.68;4.88;;;;;;;2.72;100.00;100846.19;4896745;29;20020;-71
2023/04/14 03:32:10;;;;;;;12.30;4.40;;;;;;;2.77;100.00;100857.94;4879280;29;20064;-71
2023/04/14 03:34:45;;;;;;;11.88;4.82;;;;;;;2.82;100.00;100852.25;4878962;29;20496;-71
2023/04/14 03:37:15;;;;;;;9.68;3.20;;;;;;;2.83;100.00;100856.56;4896816;29;20040;-71
2023/04/14 03:39:42;;;;;;;11.48;3.85;;;;;;;2.84;100.00;100863.47;4888992;29;20024;-72
2023/04/14 03:42:08;;;;;;;9.88;4.63;;;;;;;2.80;100.00;100867.34;4879013;29;20093;-71
2023/04/14 03:44:35;;;;;;;8.38;3.80;;;;;;;2.73;100.00;100859.22;4878786;29;20044;-72
2023/04/14 03:47:02;;;;;;;10.15;4.20;;;;;;;2.73;100.00;100872.41;4878864;29;20047;-72
2023/04/14 03:49:32;;;;;;;10.85;3.67;;;;;;;2.68;100.00;100865.91;4878669;29;20048;-71
2023/04/14 03:52:02;;;;;;;11.52;4.00;;;;;;;2.63;100.00;100882.13;4877372;29;20120;-71
2023/04/14 03:54:31;;;;;;;11.63;4.40;;;;;;;2.58;100.00;100884.38;4896316;29;20480;-71
2023/04/14 03:56:57;;;;;;;8.50;3.80;;;;;;;2.55;100.00;100877.59;4896536;29;20028;-72
2023/04/14 03:59:25;;;;;;;8.73;4.15;;;;;;;2.51;100.00;100870.94;4896430;29;20088;-71
2023/04/14 04:01:53;;;;;;;8.02;3.53;;;;;;;2.56;100.00;100879.22;4896523;29;20083;-71
2023/04/14 04:04:20;;;;;;;14.40;4.85;;;;;;;2.52;100.00;100877.88;4896355;29;20088;-71
2023/04/14 04:06:45;;;;;;;12.65;4.70;;;;;;;2.53;100.00;100881.34;4896326;29;20115;-71
2023/04/14 04:09:14;;;;;;;6.28;3.45;;;;;;;2.51;100.00;100878.84;4896177;29;20123;-72
2023/04/14 04:11:42;;;;;;;10.35;4.45;;;;;;;2.52;100.00;100875.25;4896172;29;20043;-72
2023/04/14 04:14:09;;;;;;;13.80;4.28;;;;;;;2.52;100.00;100877.88;4896082;29;20033;-72
2023/04/14 04:16:39;;;;;;;10.45;4.40;;;;;;;2.54;100.00;100877.72;4895750;29;20057;-72
2023/04/14 04:19:05;;;;;;;9.68;4.28;;;;;;;2.53;100.00;100884.78;4896082;29;20953;-71
2023/04/14 04:21:34;;;;;;;8.73;4.10;;;;;;;2.53;100.00;100882.16;4879065;29;20439;-72
2023/04/14 04:24:00;;;;;;;8.40;3.67;;;;;;;2.50;100.00;100884.25;4895976;29;20080;-72
2023/04/14 04:26:26;;;;;;;10.00;3.85;;;;;;;2.50;100.00;100885.09;4895888;29;20417;-72
2023/04/14 04:28:54;;;;;;;11.95;4.03;;;;;;;2.47;100.00;100887.19;4895883;29;20036;-72
2023/04/14 04:31:22;;;;;;;10.85;4.60;;;;;;;2.41;100.00;100893.81;4895860;29;20488;-72
2023/04/14 04:33:48;;;;;;;9.35;3.80;;;;;;;2.37;100.00;100890.66;4895812;29;20051;-72
2023/04/14 04:36:15;;;;;;;10.90;4.13;;;;;;;2.36;100.00;100883.75;4895738;29;20047;-72
2023/04/14 04:38:41;;;;;;;9.60;4.20;;;;;;;2.35;100.00;100876.81;4895313;29;20124;-71
2023/04/14 04:41:07;;;;;;;8.02;3.90;;;;;;;2.41;100.00;100883.28;4895895;29;20076;-72
2023/04/14 04:43:32;;;;;;;11.75;4.93;;;;;;;2.46;100.00;100880.25;4895252;29;20032;-72
2023/04/14 04:45:58;;;;;;;15.55;5.38;;;;;;;2.47;100.00;100890.63;4878458;29;20063;-72
2023/04/14 04:48:24;;;;;;;7.20;3.35;;;;;;;2.39;100.00;100888.72;4895267;29;20032;-72
2023/04/14 04:50:49;;;;;;;7.20;3.72;;;;;;;2.39;100.00;100885.25;4895443;29;20399;-71
2023/04/14 04:53:15;;;;;;;9.65;3.65;;;;;;;2.30;100.00;100879.03;4895342;29;20033;-71
2023/04/14 04:55:41;;;;;;;8.73;3.33;;;;;;;2.39;100.00;100890.53;4895408;29;20028;-72
2023/04/14 04:58:07;;;;;;;11.27;3.83;;;;;;;2.42;100.00;100890.22;4878406;29;20044;-72
2023/04/14 05:00:32;;;;;;;9.50;3.65;;;;;;;2.42;100.00;100882.34;4895133;29;20131;-71
2023/04/14 05:02:58;;;;;;;9.85;4.10;;;;;;;2.42;100.00;100892.88;4895122;29;20036;-71
2023/04/14 05:05:23;;;;;;;12.02;4.25;;;;;;;2.42;100.00;100882.34;4888426;29;20089;-75
2023/04/14 05:07:49;;;;;;;8.93;4.50;;;;;;;2.47;100.00;100888.00;4878510;29;20036;-72
2023/04/14 05:10:14;;;;;;;7.25;3.42;;;;;;;2.54;100.00;100883.84;4879529;29;20045;-72
2023/04/14 05:12:39;;;;;;;9.73;3.80;;;;;;;2.54;100.00;100880.34;4879739;29;20400;-72
2023/04/14 05:15:07;;;;;;;9.32;4.40;;;;;;;2.60;100.00;100880.63;4879177;29;20036;-73
2023/04/14 05:17:32;;;;;;;10.73;4.50;;;;;;;2.66;100.00;100884.47;4879916;29;20093;-72
2023/04/14 05:19:58;;;;;;;9.02;3.72;;;;;;;2.73;100.00;100887.38;4879311;29;20103;-72
2023/04/14 05:22:23;;;;;;;5.90;3.28;;;;;;;2.78;100.00;100882.50;4879542;29;20033;-71
2023/04/14 05:24:49;;;;;;;9.75;4.78;;;;;;;2.85;100.00;100881.75;4879603;29;20025;-71
2023/04/14 05:27:14;;;;;;;13.65;5.10;;;;;;;3.00;100.00;100881.28;4879806;29;20036;-72
2023/04/14 05:29:40;;;;;;;8.73;4.07;;;;;;;3.08;100.00;100890.09;4879121;29;20021;-71
2023/04/14 05:32:06;;;;;;;10.77;4.20;;;;;;;3.15;100.00;100882.44;4863023;29;20032;-71
2023/04/14 05:34:31;;;;;;;12.85;4.93;;;;;;;3.31;100.00;100888.88;4880146;29;20035;-75
2023/04/14 05:36:56;;;;;;;14.35;6.50;;;;;;;3.49;100.00;100884.47;4878098;29;20060;-72
2023/04/14 05:39:22;;;;;;;11.13;5.07;;;;;;;3.65;100.00;100883.78;4879595;29;20032;-72
2023/04/14 05:41:47;;;;;;;12.23;4.40;;;;;;;3.70;100.00;100863.06;4879111;29;20720;-72
2023/04/14 05:44:12;;;;;;;9.45;5.35;;;;;;;3.99;100.00;100878.63;4878768;29;20061;-72
2023/04/14 05:46:37;;;;;;;11.07;4.70;;;;;;;4.11;100.00;100876.56;4879579;29;20492;-72
2023/04/14 05:49:03;;;;;;;13.95;6.43;;;;;;;4.20;100.00;100880.94;4862554;29;20092;-73
2023/04/14 05:51:30;;;;;;;14.50;5.43;;;;;;;4.31;100.00;100885.13;4879065;29;20484;-73
2023/04/14 05:53:55;;;;;;;21.23;6.95;;;;;;;4.58;100.00;100886.78;4879813;29;21328;-73
2023/04/14 05:56:21;;;;;;;10.88;5.32;;;;;;;5.33;100.00;100891.38;4879943;29;20033;-77
2023/04/14 05:58:46;;;;;;;10.68;4.05;;;;;;;5.82;100.00;100887.00;4878295;29;20041;-74
2023/04/14 06:01:12;;;;;;;13.48;4.60;;;;;;;5.75;100.00;100893.13;4879144;29;20036;-74
2023/04/14 06:03:37;;;;;;;9.80;4.22;;;;;;;5.58;100.00;100901.03;4879041;29;20617;-75
2023/04/14 06:06:03;;;;;;;14.35;4.05;;;;;;;5.68;100.00;100900.88;4861542;29;20036;-74
2023/04/14 06:08:29;;;;;;;7.18;4.18;;;;;;;5.86;100.00;100890.13;4879460;29;20392;-72
2023/04/14 06:10:55;;;;;;;12.93;5.10;;;;;;;5.84;100.00;100873.59;4878825;29;20059;-73
2023/04/14 06:13:21;;;;;;;14.82;5.30;;;;;;;6.01;100.00;100885.88;4878448;29;20384;-72
2023/04/14 06:15:50;;;;;;;10.60;4.57;;;;;;;5.97;100.00;100892.47;4879143;29;20072;-73
2023/04/14 06:18:16;;;;;;;17.45;5.20;;;;;;;5.85;100.00;100876.09;4878786;29;20043;-72
2023/04/14 06:20:41;;;;;;;10.27;4.03;;;;;;;5.72;100.00;100873.94;4878279;29;20025;-72
2023/04/14 06:23:07;;;;;;;11.15;4.43;;;;;;;5.87;100.00;100882.03;4879352;29;20092;-74
2023/04/14 06:25:35;;;;;;;15.73;4.25;;;;;;;5.92;100.00;100881.53;4878377;29;20481;-73
2023/04/14 06:28:03;;;;;;;11.75;5.32;;;;;;;6.00;100.00;100884.22;4877660;29;20046;-73
2023/04/14 06:30:31;;;;;;;11.38;3.75;;;;;;;6.12;100.00;100882.88;4878350;29;20038;-73
2023/04/14 06:32:57;;;;;;;9.88;4.10;;;;;;;6.24;100.00;100882.56;4861374;29;20120;-73
2023/04/14 06:35:22;;;;;;;9.85;4.10;;;;;;;6.30;100.00;100885.34;4878087;29;20112;-73
2023/04/14 06:37:47;;;;;;;11.35;4.22;;;;;;;6.19;100.00;100874.28;4877743;29;20036;-73
2023/04/14 06:40:13;;;;;;;10.40;4.88;;;;;;;6.15;100.00;100868.47;4877377;29;20021;-73
2023/04/14 06:42:38;;;;;;;15.93;4.90;;;;;;;6.29;100.00;100888.19;4877300;29;20035;-73
2023/04/14 06:45:04;;;;;;;9.13;4.78;;;;;;;6.43;100.00;100887.47;4877669;29;20066;-73
2023/04/14 06:47:29;;;;;;;7.60;3.53;;;;;;;6.52;99.13;100890.94;4876766;29;20064;-72
2023/04/14 06:49:55;;;;;;;14.40;4.45;;;;;;;6.49;98.48;100875.38;4877301;29;20029;-73
2023/04/14 06:52:20;;;;;;;10.18;4.53;;;;;;;6.55;100.00;100877.38;4878384;29;20045;-74
2023/04/14 06:54:46;;;;;;;10.95;4.38;;;;;;;6.62;100.00;100874.84;4861971;29;20377;-75
2023/04/14 06:57:11;;;;;;;10.85;4.32;;;;;;;6.63;98.74;100880.00;4877193;29;20600;-75
2023/04/14 06:59:37;;;;;;;10.20;5.95;;;;;;;6.61;98.46;100863.44;4878460;29;20140;-75
2023/04/14 07:02:03;;;;;;;12.35;5.50;;;;;;;6.60;98.60;100867.06;4881363;29;20047;-75
2023/04/14 07:04:28;;;;;;;11.18;4.60;;;;;;;6.59;98.28;100871.53;4881965;29;20037;-75
2023/04/14 07:06:58;;;;;;;12.57;5.18;;;;;;;6.70;98.46;100866.88;4881559;29;20040;-75
2023/04/14 07:09:24;;;;;;;11.95;6.00;;;;;;;6.76;99.57;100851.13;4881815;29;20048;-75
2023/04/14 07:11:51;;;;;;;9.63;4.50;;;;;;;6.91;98.53;100861.81;4881783;29;20473;-75
2023/04/14 07:14:17;;;;;;;13.57;4.32;;;;;;;7.01;99.56;100859.78;4881867;29;20037;-75
2023/04/14 07:16:42;;;;;;;11.85;3.95;;;;;;;7.12;100.00;100855.09;4881743;29;20408;-75
2023/04/14 07:19:07;;;;;;;12.13;4.55;;;;;;;7.20;99.71;100855.03;4881988;29;20996;-75
2023/04/14 07:21:33;;;;;;;10.52;4.20;;;;;;;7.25;99.27;100850.06;4881892;29;20039;-72
2023/04/14 07:23:58;;;;;;;12.80;3.58;;;;;;;7.38;100.00;100849.47;4862064;29;20037;-72
2023/04/14 07:26:24;;;;;;;10.02;4.68;;;;;;;7.47;98.42;100859.88;4881459;29;20072;-71
2023/04/14 07:28:50;;;;;;;14.40;4.30;;;;;;;7.57;96.29;100853.50;4881259;29;20377;-71
2023/04/14 07:31:15;;;;;;;7.32;3.53;;;;;;;7.82;94.56;100856.78;4880490;29;20033;-71
2023/04/14 07:33:41;;;;;;;9.35;4.07;;;;;;;8.52;94.00;100855.69;4881443;29;20515;-71
2023/04/14 07:36:08;;;;;;;8.55;3.63;;;;;;;9.36;89.59;100832.13;4881024;29;20115;-72
2023/04/14 07:38:34;;;;;;;13.82;3.92;;;;;;;10.00;87.71;100841.09;4880345;29;21274;-72
2023/04/14 07:41:03;;;;;;;5.20;3.45;;;;;;;10.65;83.59;100833.78;4881121;29;20060;-72
2023/04/14 07:43:33;;;;;;;14.10;4.75;;;;;;;10.85;82.55;100837.38;4879906;29;20547;-72
2023/04/14 07:46:00;;;;;;;7.05;3.17;;;;;;;10.78;80.84;100833.84;4880794;29;20508;-72
2023/04/14 07:48:25;;;;;;;11.90;3.75;;;;;;;10.79;78.09;100832.81;4848630;29;20040;-73
2023/04/14 07:50:50;;;;;;;12.60;3.80;;;;;;;10.80;81.13;100837.13;4881531;29;20048;-72
2023/04/14 07:53:16;;;;;;;8.13;3.20;;;;;;;10.77;81.79;100834.88;4881030;29;20070;-72
2023/04/14 07:55:41;;;;;;;11.68;2.63;;;;;;;10.62;77.93;100827.00;4881698;29;20057;-73
2023/04/14 07:58:06;;;;;;;7.45;3.78;;;;;;;10.81;77.00;100822.75;4880869;29;20041;-73
2023/04/14 08:00:32;;;;;;;6.13;3.45;;;;;;;12.15;73.13;100826.50;4879887;29;20473;-73
2023/04/14 08:02:57;;;;;;;10.02;3.10;;;;;;;13.94;67.94;100825.66;4884009;29;20040;-77
2023/04/14 08:05:22;;;;;;;6.53;3.10;;;;;;;15.54;62.19;100837.25;4878296;29;20029;-75
2023/04/14 08:07:48;;;;;;;8.52;3.42;;;;;;;16.47;58.02;100824.13;4877293;29;20033;-75
2023/04/14 08:10:14;;;;;;;8.18;3.03;;;;;;;17.26;58.42;100829.75;4860608;29;20556;-75
2023/04/14 08:12:40;;;;;;;9.38;3.17;;;;;;;17.98;53.35;100828.31;4876397;29;20142;-75
2023/04/14 08:15:05;;;;;;;4.68;2.50;;;;;;;18.30;49.87;100829.31;4860172;29;20037;-74
2023/04/14 08:17:31;;;;;;;7.82;2.50;;;;;;;18.67;48.71;100827.91;4877322;29;20124;-75
2023/04/14 08:19:57;;;;;;;4.72;2.42;;;;;;;18.96;45.82;100825.88;4875820;29;20100;-74
2023/04/14 08:22:24;;;;;;;7.18;2.70;;;;;;;19.09;46.10;100825.47;4877100;29;20373;-74
2023/04/14 08:24:50;;;;;;;7.72;2.22;;;;;;;19.90;46.72;100827.31;4877193;29;20071;-75
2023/04/14 08:27:15;;;;;;;7.80;3.17;;;;;;;20.06;42.18;100818.22;4877450;29;20065;-75
2023/04/14 08:29:40;;;;;;;8.90;3.13;;;;;;;20.40;43.15;100819.78;4877685;29;20048;-75
2023/04/14 08:32:06;;;;;;;7.30;2.38;;;;;;;20.23;42.39;100823.50;4877999;29;20469;-75
2023/04/14 08:34:31;;;;;;;7.43;3.03;;;;;;;20.11;41.32;100829.09;4877937;29;20032;-75
2023/04/14 08:36:59;;;;;;;9.98;3.28;;;;;;;20.20;45.14;100826.72;4876623;29;20033;-75
2023/04/14 08:39:25;;;;;;;10.32;3.10;;;;;;;19.40;41.43;100829.31;4895284;29;20032;-74
2023/04/14 08:41:52;;;;;;;4.35;1.83;;;;;;;17.85;45.01;100824.88;4895773;29;20036;-74
2023/04/14 08:44:17;;;;;;;9.52;2.78;;;;;;;16.41;49.31;100829.38;4895586;29;20028;-75
2023/04/14 08:46:44;;;;;;;4.10;1.83;;;;;;;15.04;52.02;100832.16;4895667;29;20491;-74
2023/04/14 08:49:16;;;;;;;16.70;3.65;;;;;;;13.91;54.29;100831.47;4895414;29;20025;-74
2023/04/14 08:51:44;;;;;;;4.35;1.92;;;;;;;13.26;56.80;100834.41;4895332;29;20120;-75
2023/04/14 08:54:11;;;;;;;4.50;2.25;;;;;;;12.73;59.60;100837.25;4895335;29;20115;-74
2023/04/14 08:56:39;;;;;;;4.00;1.95;;;;;;;12.50;61.59;100833.22;4895390;29;20041;-74
2023/04/14 08:59:09;;;;;;;7.13;2.00;;;;;;;12.37;63.99;100832.44;4882966;29;20033;-74
2023/04/14 09:01:35;;;;;;;7.00;2.58;;;;;;;12.31;63.97;100825.22;4895195;29;20107;-74
2023/04/14 09:04:03;;;;;;;5.18;1.58;;;;;;;12.37;65.10;100824.41;4877958;29;20033;-74
2023/04/14 09:06:29;;;;;;;7.57;2.22;;;;;;;12.26;62.64;100824.03;4895176;29;20037;-74
2023/04/14 09:08:54;;;;;;;4.13;2.28;;;;;;;12.19;65.38;100823.19;4877220;29;20037;-74
2023/04/14 09:11:19;;;;;;;4.32;2.50;;;;;;;12.28;66.57;100826.47;4877156;29;20109;-74
2023/04/14 09:13:47;;;;;;;5.05;2.35;;;;;;;12.40;68.55;100818.66;4876925;29;20037;-74
2023/04/14 09:16:13;;;;;;;6.78;1.58;;;;;;;12.47;67.41;100817.59;4876641;29;20048;-74
2023/04/14 09:18:39;;;;;;;1.73;1.55;;;;;;;12.47;61.60;100820.28;4860045;29;20052;-74
2023/04/14 09:21:05;;;;;;;9.88;2.45;;;;;;;12.46;59.36;100813.25;4877036;29;20040;-74
2023/04/14 09:23:32;;;;;;;3.33;1.35;;;;;;;12.33;58.44;100807.13;4876829;29;20064;-74
2023/04/14 09:25:58;;;;;;;5.97;1.60;;;;;;;12.37;63.97;100817.22;4876907;29;20033;-74
2023/04/14 09:28:23;;;;;;;12.30;2.38;;;;;;;12.47;64.91;100806.06;4877099;29;20025;-74
2023/04/14 09:30:48;;;;;;;2.60;1.95;;;;;;;12.57;62.52;100811.78;4877227;29;20533;-74
2023/04/14 09:33:21;;;;;;;6.57;2.22;;;;;;;12.58;62.75;100815.31;4876941;29;20128;-74
2023/04/14 09:35:49;;;;;;;7.80;2.70;;;;;;;12.65;64.34;100803.56;4876867;29;20439;-74
2023/04/14 09:38:29;;;;;;;4.88;3.20;;;;;;;12.75;62.07;100808.44;4876849;29;20032;-74
2023/04/14 09:40:55;;;;;;;5.35;2.30;;;;;;;12.71;62.46;100802.69;4876687;29;20028;-74
2023/04/14 09:43:25;;;;;;;5.65;2.10;;;;;;;12.83;62.75;100800.16;4876715;29;20092;-74
2023/04/14 09:45:52;;;;;;;4.78;1.60;;;;;;;12.85;58.49;100800.78;4876337;29;20117;-72
2023/04/14 09:48:19;;;;;;;13.50;3.28;;;;;;;13.00;59.92;100797.84;4876544;29;20037;-71
2023/04/14 09:51:20;;;;;;;4.22;2.17;;;;;;;12.93;56.44;100789.00;4876495;29;20068;-72
2023/04/14 09:53:46;;;;;;;7.20;3.05;;;;;;;13.05;62.59;100791.84;4817236;29;20038;-72
2023/04/14 09:56:12;;;;;;;5.13;2.17;;;;;;;13.16;63.05;100793.84;4862288;29;20047;-71
2023/04/14 09:58:42;;;;;;;7.25;2.05;;;;;;;13.36;62.48;100789.22;4877295;29;20048;-71
2023/04/14 10:01:13;;;;;;;5.57;1.52;;;;;;;13.52;58.29;100771.78;4876492;29;20381;-72
2023/04/14 10:03:44;;;;;;;6.53;1.92;;;;;;;13.57;57.99;100774.63;4875945;29;20093;-72
2023/04/14 10:06:16;;;;;;;8.17;2.47;;;;;;;13.70;56.65;100786.25;4876520;29;20085;-71
2023/04/14 10:08:43;;;;;;;4.10;1.70;;;;;;;13.71;60.40;100775.34;4894053;29;20028;-72
2023/04/14 10:11:16;;;;;;;3.22;1.52;;;;;;;13.81;55.38;100785.56;4894123;29;20391;-72
2023/04/14 10:13:42;;;;;;;6.28;2.20;;;;;;;13.88;60.28;100778.28;4894056;29;20119;-72
2023/04/14 10:16:07;;;;;;;3.60;2.05;;;;;;;13.90;58.04;100776.19;4893776;29;20068;-71
2023/04/14 10:18:33;;;;;;;2.55;1.70;;;;;;;13.81;55.70;100764.94;4877305;29;20036;-72
2023/04/14 10:21:00;;;;;;;8.10;1.90;;;;;;;13.71;54.89;100769.97;4877413;29;20052;-72
2023/04/14 10:23:26;;;;;;;5.45;2.10;;;;;;;13.74;58.07;100750.75;4894085;29;20059;-72
2023/04/14 10:25:54;;;;;;;3.33;1.25;;;;;;;13.81;56.47;100754.22;4881298;29;20051;-71
2023/04/14 10:28:22;;;;;;;7.85;1.33;;;;;;;13.91;55.95;100758.25;4876004;29;20131;-71
2023/04/14 10:30:49;;;;;;;6.50;1.50;;;;;;;13.74;55.62;100755.31;4875922;29;20497;-71
2023/04/14 10:33:15;;;;;;;2.45;1.25;;;;;;;13.74;54.75;100758.81;4876104;29;20127;-71
2023/04/14 10:35:46;;;;;;;2.97;1.63;;;;;;;13.76;55.40;100747.88;4886365;29;20192;-71
2023/04/14 10:38:12;;;;;;;9.48;2.70;;;;;;;13.81;56.42;100750.72;4880720;29;20537;-71
2023/04/14 10:40:51;;;;;;;2.22;1.30;;;;;;;13.96;56.37;100740.47;4897751;29;20029;-71
2023/04/14 10:43:17;;;;;;;5.18;1.05;;;;;;;14.09;57.11;100736.00;4897512;29;20036;-71
2023/04/14 10:45:55;;;;;;;3.67;1.77;;;;;;;14.25;56.66;100738.91;4897788;29;20039;-71
2023/04/14 10:48:25;;;;;;;2.67;1.25;;;;;;;14.33;57.72;100740.50;4897406;29;20033;-71
2023/04/14 10:50:55;;;;;;;2.50;1.00;;;;;;;14.34;55.08;100733.25;4897107;29;20497;-71
2023/04/14 10:53:24;;;;;;;2.42;1.60;;;;;;;14.46;57.47;100734.97;4880573;29;20044;-71
2023/04/14 10:55:52;;;;;;;5.10;1.40;;;;;;;14.51;50.11;100742.31;4897672;29;20033;-71
2023/04/14 10:58:19;;;;;;;3.28;1.30;;;;;;;14.62;55.28;100732.75;4897373;29;20044;-71
2023/04/14 11:00:45;;;;;;;6.25;1.40;;;;;;;14.58;50.31;100735.03;4897397;29;20040;-71
2023/04/14 11:03:16;;;;;;;2.42;1.50;;;;;;;14.64;52.85;100741.38;4887106;29;20389;-70
2023/04/14 11:05:48;;;;;;;2.50;1.20;;;;;;;14.75;51.25;100727.19;4881555;29;20536;-71
2023/04/14 11:08:28;;;;;;;1.85;0.85;;;;;;;14.84;51.85;100731.19;4882595;29;20481;-71
2023/04/14 11:11:04;;;;;;;4.85;1.50;;;;;;;14.79;52.31;100723.00;4881830;29;20441;-71
2023/04/14 11:13:31;;;;;;;3.88;1.33;;;;;;;14.89;51.45;100727.81;4865033;29;20206;-70
2023/04/14 11:16:01;;;;;;;2.42;1.38;;;;;;;14.90;51.02;100714.16;4881871;29;20064;-70
2023/04/14 11:18:36;;;;;;;5.97;2.15;;;;;;;14.74;46.96;100714.81;4880558;29;20459;-70
2023/04/14 11:21:03;;;;;;;2.55;1.20;;;;;;;14.68;52.09;100707.66;4882175;29;20040;-71
2023/04/14 11:23:29;;;;;;;3.95;2.15;;;;;;;14.92;53.05;100719.31;4886091;29;20033;-71